Time;durP1;ratioP1;P1;durP2;ratioP2;P2;SDS_P1;SDS_P2;PMS_P1;PMS_P2;Temp;Humidity;BMP_temperature;BMP_pressure;BME280_temperature;BME280_humidity;BME280_pressure;Samples;Min_cycle;Max_cycle;Signal;HPM_P1;HPM_P2
2021/08/13 00:00:14;;;;;;;9.48;5.72;;;;;;;21.78;92.32;98395.72;5010616;28;20034;-74
2021/08/13 00:02:39;;;;;;;7.32;6.28;;;;;;;21.73;93.04;98415.47;5012291;28;20026;-74
2021/08/13 00:05:05;;;;;;;7.70;6.10;;;;;;;21.71;92.98;98419.75;5011578;28;20167;-75
2021/08/13 00:07:31;;;;;;;7.68;6.15;;;;;;;21.56;93.67;98415.78;5011891;28;20022;-75
2021/08/13 00:09:56;;;;;;;9.98;6.45;;;;;;;21.79;92.56;98416.03;5011459;28;20038;-75
2021/08/13 00:12:21;;;;;;;6.75;5.80;;;;;;;21.70;93.03;98410.63;5011597;28;20036;-75
2021/08/13 00:14:47;;;;;;;9.80;6.72;;;;;;;21.62;93.48;98408.81;5010226;28;20034;-75
2021/08/13 00:17:12;;;;;;;6.97;6.00;;;;;;;21.63;93.44;98409.63;5011676;28;20395;-75
2021/08/13 00:19:38;;;;;;;9.10;5.47;;;;;;;21.73;92.11;98407.13;5011639;28;20033;-74
2021/08/13 00:22:03;;;;;;;9.45;6.25;;;;;;;21.73;91.96;98406.31;5011802;28;20022;-74
2021/08/13 00:24:29;;;;;;;9.40;6.10;;;;;;;21.61;92.63;98400.81;5011620;28;20467;-74
2021/08/13 00:26:54;;;;;;;11.45;5.80;;;;;;;21.48;93.35;98399.25;5011479;28;20034;-74
2021/08/13 00:29:20;;;;;;;10.40;7.22;;;;;;;21.40;94.07;98403.00;5011371;28;20034;-74
2021/08/13 00:31:45;;;;;;;9.95;7.15;;;;;;;21.34;94.13;98397.69;5011425;28;20018;-74
2021/08/13 00:34:11;;;;;;;10.88;7.45;;;;;;;21.43;93.50;98399.50;5011618;28;20183;-73
2021/08/13 00:36:36;;;;;;;13.40;7.38;;;;;;;21.46;93.84;98404.38;5011470;28;20486;-73
2021/08/13 00:39:02;;;;;;;10.93;7.90;;;;;;;21.46;93.70;98415.53;5011248;28;20037;-75
2021/08/13 00:41:29;;;;;;;11.13;6.60;;;;;;;21.42;94.06;98412.63;5010925;28;20879;-73
2021/08/13 00:43:55;;;;;;;13.02;7.35;;;;;;;21.65;92.18;98410.06;5009885;28;20044;-73
2021/08/13 00:46:20;;;;;;;13.25;7.88;;;;;;;21.61;92.57;98418.34;5011123;28;20478;-72
2021/08/13 00:48:46;;;;;;;8.45;7.10;;;;;;;21.64;92.39;98414.03;5010989;28;20125;-74
2021/08/13 00:51:12;;;;;;;10.15;6.50;;;;;;;21.66;92.14;98423.63;5009857;28;20441;-74
2021/08/13 00:53:37;;;;;;;12.70;6.30;;;;;;;21.63;91.81;98423.53;5009767;28;20442;-74
2021/08/13 00:56:03;;;;;;;11.02;6.05;;;;;;;21.58;91.70;98426.59;5010950;28;20084;-74
2021/08/13 00:58:28;;;;;;;11.48;5.75;;;;;;;21.45;92.62;98428.63;5011304;28;20497;-74
2021/08/13 01:00:55;;;;;;;8.77;6.55;;;;;;;21.39;92.87;98427.25;5011089;28;20033;-74
2021/08/13 01:03:20;;;;;;;10.82;6.15;;;;;;;21.26;93.23;98420.13;5011044;28;20033;-74
2021/08/13 01:05:46;;;;;;;6.78;6.07;;;;;;;21.27;92.95;98411.41;5011001;28;20022;-74
2021/08/13 01:08:11;;;;;;;13.80;7.78;;;;;;;21.46;92.29;98418.31;5011131;28;20033;-74
2021/08/13 01:10:46;;;;;;;10.98;6.80;;;;;;;21.47;92.02;98426.28;5010709;28;20413;-75
2021/08/13 01:13:17;;;;;;;10.02;6.63;;;;;;;21.22;93.80;98420.00;5009538;28;20439;-74
2021/08/13 01:15:49;;;;;;;8.50;5.95;;;;;;;21.37;93.19;98424.00;5010694;28;20092;-75
2021/08/13 01:18:23;;;;;;;10.63;6.10;;;;;;;21.37;93.38;98432.34;5010915;28;20022;-74
2021/08/13 01:21:03;;;;;;;10.00;5.70;;;;;;;21.39;93.08;98430.03;5010924;28;20080;-74
2021/08/13 01:23:39;;;;;;;14.43;6.38;;;;;;;21.31;93.71;98428.22;5010656;28;20030;-73
2021/08/13 01:26:06;;;;;;;10.30;5.63;;;;;;;21.23;94.59;98418.88;5009735;28;20026;-74
2021/08/13 01:28:37;;;;;;;12.48;5.35;;;;;;;21.38;93.60;98438.75;5010632;28;20057;-77
2021/08/13 01:31:12;;;;;;;10.07;7.15;;;;;;;21.32;93.91;98430.66;5010868;28;20034;-75
2021/08/13 01:33:40;;;;;;;10.07;5.15;;;;;;;21.16;95.05;98440.91;5010930;28;20461;-74
2021/08/13 01:36:08;;;;;;;9.20;6.00;;;;;;;21.22;94.79;98439.50;5010809;28;20034;-73
2021/08/13 01:38:37;;;;;;;8.20;6.03;;;;;;;21.18;94.31;98419.09;5010886;28;20053;-73
2021/08/13 01:41:06;;;;;;;9.38;5.78;;;;;;;20.89;96.49;98436.09;5010337;28;20076;-74
2021/08/13 01:43:33;;;;;;;9.68;6.18;;;;;;;21.03;95.70;98435.69;5010733;28;20076;-75
2021/08/13 01:46:00;;;;;;;6.95;5.78;;;;;;;20.81;97.00;98429.50;5010459;28;20048;-75
2021/08/13 01:48:29;;;;;;;8.02;6.00;;;;;;;20.70;97.74;98433.09;5011649;28;20026;-74
2021/08/13 01:50:56;;;;;;;6.47;5.65;;;;;;;20.73;97.98;98440.75;5014273;28;20084;-74
2021/08/13 01:53:23;;;;;;;10.23;6.55;;;;;;;20.89;96.89;98430.53;5014132;28;20029;-75
2021/08/13 01:55:50;;;;;;;7.13;6.15;;;;;;;20.87;97.26;98421.72;5014485;28;20452;-74
2021/08/13 01:58:18;;;;;;;12.40;5.93;;;;;;;20.81;97.48;98434.22;5014234;28;20026;-74
2021/08/13 02:00:44;;;;;;;12.35;6.13;;;;;;;20.72;98.33;98422.44;5013841;28;20040;-74
2021/08/13 02:03:11;;;;;;;10.85;7.20;;;;;;;20.59;99.21;98440.28;5013353;28;20030;-74
2021/08/13 02:05:39;;;;;;;10.77;6.78;;;;;;;20.54;99.78;98424.66;5014052;28;20113;-74
2021/08/13 02:08:06;;;;;;;10.18;6.35;;;;;;;20.84;97.86;98425.19;5014028;28;20033;-74
2021/08/13 02:10:35;;;;;;;9.10;6.65;;;;;;;21.07;96.30;98425.50;5013927;28;20021;-73
2021/08/13 02:13:01;;;;;;;6.93;5.70;;;;;;;21.13;95.76;98415.75;5014052;28;20058;-74
2021/08/13 02:15:27;;;;;;;8.73;7.07;;;;;;;21.13;95.63;98427.69;5013599;28;20022;-75
2021/08/13 02:18:12;;;;;;;6.97;6.05;;;;;;;20.99;96.19;98421.66;5013849;28;20026;-74
2021/08/13 02:20:41;;;;;;;9.63;6.68;;;;;;;21.05;96.03;98420.25;5013614;28;20390;-74
2021/08/13 02:23:06;;;;;;;10.43;6.88;;;;;;;20.92;96.90;98415.91;5012703;28;20033;-75
2021/08/13 02:25:32;;;;;;;7.43;5.95;;;;;;;20.94;96.85;98409.97;5012466;28;20014;-75
2021/08/13 02:27:58;;;;;;;10.23;6.50;;;;;;;20.98;96.48;98408.94;5013338;28;20029;-74
2021/08/13 02:30:23;;;;;;;8.43;6.32;;;;;;;20.97;96.87;98410.09;5014002;28;20032;-75
2021/08/13 02:32:49;;;;;;;11.75;6.05;;;;;;;21.12;95.50;98409.38;5016013;28;20021;-75
2021/08/13 02:35:15;;;;;;;12.30;6.78;;;;;;;20.89;97.40;98404.69;5015705;28;20057;-75
2021/08/13 02:37:55;;;;;;;11.25;6.28;;;;;;;20.77;97.58;98399.94;5013811;28;20466;-75
2021/08/13 02:40:33;;;;;;;8.35;6.38;;;;;;;20.64;99.05;98401.94;5013229;28;20109;-74
2021/08/13 02:43:04;;;;;;;6.95;6.25;;;;;;;20.70;99.42;98391.41;5011779;28;20053;-74
2021/08/13 02:45:35;;;;;;;10.20;7.03;;;;;;;20.74;98.76;98392.28;5013347;28;20041;-74
2021/08/13 02:48:01;;;;;;;11.77;7.38;;;;;;;20.77;98.69;98397.16;5011967;28;20125;-74
2021/08/13 02:50:30;;;;;;;7.53;6.72;;;;;;;20.67;99.45;98400.44;5013147;28;20026;-74
2021/08/13 02:53:09;;;;;;;7.68;6.38;;;;;;;20.57;99.48;98387.00;5013149;28;20022;-74
2021/08/13 02:55:46;;;;;;;9.95;5.43;;;;;;;20.61;99.70;98393.50;5013183;28;20034;-74
2021/08/13 02:58:16;;;;;;;9.82;6.65;;;;;;;20.48;100.00;98394.69;5013058;28;20018;-74
2021/08/13 03:00:43;;;;;;;7.28;5.80;;;;;;;20.60;99.35;98391.88;5011777;28;20483;-73
2021/08/13 03:03:11;;;;;;;7.95;6.22;;;;;;;20.28;100.00;98394.47;5013608;28;20132;-74
2021/08/13 03:05:42;;;;;;;11.10;5.35;;;;;;;20.23;100.00;98400.22;5012873;28;20469;-74
2021/08/13 03:08:07;;;;;;;13.65;6.32;;;;;;;20.08;100.00;98398.13;5011788;28;20022;-75
2021/08/13 03:10:33;;;;;;;8.68;5.82;;;;;;;20.07;100.00;98402.06;5012888;28;20021;-74
2021/08/13 03:12:58;;;;;;;9.32;5.72;;;;;;;19.95;100.00;98402.06;5012806;28;20475;-74
2021/08/13 03:15:25;;;;;;;13.63;6.13;;;;;;;20.28;100.00;98402.78;5012876;28;20135;-75
2021/08/13 03:17:52;;;;;;;7.05;5.82;;;;;;;20.21;100.00;98404.50;5012711;28;20034;-75
2021/08/13 03:20:18;;;;;;;8.93;6.38;;;;;;;20.11;100.00;98400.19;5012708;28;20797;-73
2021/08/13 03:22:44;;;;;;;8.10;6.32;;;;;;;20.09;100.00;98402.53;5011143;28;20030;-74
2021/08/13 03:25:10;;;;;;;9.85;6.15;;;;;;;20.12;100.00;98404.59;5012787;28;20506;-75
2021/08/13 03:27:38;;;;;;;11.07;6.25;;;;;;;20.19;100.00;98406.81;5012220;28;20076;-74
2021/08/13 03:30:05;;;;;;;12.25;6.47;;;;;;;20.07;100.00;98402.06;5012528;28;20478;-73
2021/08/13 03:32:31;;;;;;;8.95;6.78;;;;;;;20.17;100.00;98398.81;5012657;28;20049;-75
2021/08/13 03:34:57;;;;;;;10.05;6.72;;;;;;;20.39;100.00;98403.16;5011293;28;20101;-74
2021/08/13 03:37:22;;;;;;;9.80;6.30;;;;;;;20.31;99.89;98390.16;5012310;28;20589;-76
2021/08/13 03:39:47;;;;;;;8.50;5.97;;;;;;;20.19;100.00;98413.19;5012320;28;20041;-75
2021/08/13 03:42:13;;;;;;;9.40;6.32;;;;;;;20.30;100.00;98413.53;5011948;28;20160;-74
2021/08/13 03:44:38;;;;;;;8.60;7.13;;;;;;;20.35;100.00;98424.44;5010985;28;20040;-75
2021/08/13 03:47:04;;;;;;;7.68;6.13;;;;;;;20.24;100.00;98423.25;5012065;28;20115;-73
2021/08/13 03:49:30;;;;;;;11.07;6.38;;;;;;;20.30;100.00;98421.88;5010538;28;20033;-75
2021/08/13 03:51:57;;;;;;;6.93;6.22;;;;;;;20.25;100.00;98416.53;5011681;28;20084;-74
2021/08/13 03:54:25;;;;;;;9.35;7.05;;;;;;;20.11;100.00;98407.75;5010910;28;20026;-74
2021/08/13 03:56:51;;;;;;;7.57;6.53;;;;;;;20.23;100.00;98430.78;5012101;28;20041;-74
2021/08/13 03:59:16;;;;;;;10.07;6.55;;;;;;;20.11;100.00;98419.66;5011897;28;20026;-75
2021/08/13 04:01:42;;;;;;;12.23;6.18;;;;;;;20.06;100.00;98421.84;5011930;28;20537;-74
2021/08/13 04:04:07;;;;;;;7.72;6.47;;;;;;;19.97;100.00;98435.03;5012350;28;20530;-74
2021/08/13 04:06:32;;;;;;;7.93;6.03;;;;;;;19.83;100.00;98432.56;5011922;28;20026;-74
2021/08/13 04:08:58;;;;;;;9.35;7.07;;;;;;;20.15;100.00;98442.00;5010767;28;20089;-74
2021/08/13 04:11:23;;;;;;;9.32;6.10;;;;;;;20.11;100.00;98441.88;5011527;28;20101;-75
2021/08/13 04:13:48;;;;;;;10.75;7.18;;;;;;;19.83;100.00;98445.66;5012103;28;20502;-74
2021/08/13 04:16:14;;;;;;;9.20;5.72;;;;;;;19.67;100.00;98445.50;5011584;28;20052;-74
2021/08/13 04:18:40;;;;;;;10.77;6.20;;;;;;;19.49;100.00;98444.84;5010083;28;20018;-74
2021/08/13 04:21:05;;;;;;;10.90;6.85;;;;;;;19.66;100.00;98446.66;5011498;28;20037;-75
2021/08/13 04:23:30;;;;;;;11.70;6.35;;;;;;;19.85;100.00;98448.91;5011709;28;20108;-75
2021/08/13 04:25:56;;;;;;;6.88;5.85;;;;;;;19.82;100.00;98455.16;5011798;28;20022;-74
2021/08/13 04:28:21;;;;;;;7.20;5.95;;;;;;;19.82;100.00;98455.97;5011373;28;20026;-74
2021/08/13 04:30:47;;;;;;;7.45;6.65;;;;;;;19.87;100.00;98464.06;5011323;28;20033;-74
2021/08/13 04:33:14;;;;;;;9.00;5.93;;;;;;;20.05;100.00;98471.03;5011537;28;20065;-76
2021/08/13 04:35:40;;;;;;;14.40;6.22;;;;;;;20.46;98.98;98463.69;5011403;28;20470;-73
2021/08/13 04:38:06;;;;;;;6.38;5.47;;;;;;;20.38;98.75;98464.63;5011516;28;20037;-74
2021/08/13 04:40:32;;;;;;;6.85;5.95;;;;;;;20.41;99.18;98469.50;5011246;28;20026;-74
2021/08/13 04:42:58;;;;;;;7.13;6.13;;;;;;;20.37;98.96;98463.81;5011345;28;20091;-75
2021/08/13 04:45:23;;;;;;;11.00;6.43;;;;;;;20.35;99.27;98465.31;5011239;28;20018;-73
2021/08/13 04:47:49;;;;;;;11.88;6.85;;;;;;;20.42;99.39;98463.59;5011280;28;20351;-74
2021/08/13 04:50:15;;;;;;;9.02;6.72;;;;;;;20.54;98.64;98466.38;5012577;28;20030;-73
2021/08/13 04:52:45;;;;;;;9.63;6.90;;;;;;;20.51;98.65;98466.25;5016435;28;20026;-74
2021/08/13 04:55:12;;;;;;;8.75;7.85;;;;;;;20.42;99.85;98463.59;5010828;28;20371;-74
2021/08/13 04:57:39;;;;;;;12.45;8.65;;;;;;;20.33;100.00;98475.97;5011438;28;20121;-74
2021/08/13 05:00:05;;;;;;;10.35;7.53;;;;;;;20.33;100.00;98464.88;5010884;28;20506;-75
2021/08/13 05:02:31;;;;;;;14.13;9.02;;;;;;;20.52;100.00;98484.53;5010966;28;20018;-73
2021/08/13 05:05:00;;;;;;;13.95;9.80;;;;;;;20.51;100.00;98488.50;5006095;28;20032;-75
2021/08/13 05:07:28;;;;;;;19.20;9.25;;;;;;;21.01;96.94;98491.69;4993514;28;20536;-75
2021/08/13 05:09:53;;;;;;;11.30;8.30;;;;;;;21.22;94.78;98480.44;4993208;28;20029;-75
2021/08/13 05:12:18;;;;;;;9.45;7.82;;;;;;;21.45;93.05;98478.75;5010758;28;20022;-75
2021/08/13 05:14:44;;;;;;;15.85;7.75;;;;;;;21.60;91.93;98491.91;5010584;28;20030;-74
2021/08/13 05:17:09;;;;;;;8.07;6.85;;;;;;;21.48;91.94;98477.22;5011526;28;20072;-75
2021/08/13 05:19:35;;;;;;;8.30;6.40;;;;;;;21.53;92.16;98482.53;5010580;28;20026;-75
2021/08/13 05:22:00;;;;;;;8.00;7.20;;;;;;;21.34;93.09;98488.72;5007611;28;20080;-75
2021/08/13 05:24:25;;;;;;;9.70;6.93;;;;;;;21.30;93.37;98488.63;4995517;28;20061;-74
2021/08/13 05:26:51;;;;;;;9.38;7.15;;;;;;;21.34;93.16;98489.56;4995031;28;20121;-74
2021/08/13 05:29:16;;;;;;;9.65;7.38;;;;;;;21.45;92.17;98478.75;4995385;28;20514;-75
2021/08/13 05:31:42;;;;;;;9.88;6.60;;;;;;;21.65;90.35;98491.63;5009716;28;20077;-75
2021/08/13 05:34:07;;;;;;;7.35;5.90;;;;;;;21.63;90.16;98495.94;4993448;28;20030;-75
2021/08/13 05:36:33;;;;;;;8.95;6.85;;;;;;;21.60;89.44;98491.91;4994815;28;20084;-74
2021/08/13 05:38:58;;;;;;;8.48;5.90;;;;;;;21.93;87.96;98488.84;4993127;28;20463;-74
2021/08/13 05:41:23;;;;;;;7.28;6.07;;;;;;;22.00;86.84;98493.81;4994745;28;20126;-82
2021/08/13 05:43:49;;;;;;;13.73;7.00;;;;;;;22.01;86.63;98496.25;4993918;28;20069;-78
2021/08/13 05:46:15;;;;;;;10.10;6.78;;;;;;;21.74;89.12;98488.72;5012467;28;20119;-84
2021/08/13 05:48:40;;;;;;;9.38;6.85;;;;;;;21.80;89.17;98495.66;4997124;28;20056;-81
2021/08/13 05:51:06;;;;;;;11.43;6.47;;;;;;;21.76;89.64;98489.16;4997142;28;20053;-86
2021/08/13 05:53:31;;;;;;;12.00;7.00;;;;;;;21.77;88.63;98490.78;4999956;28;20022;-86
2021/08/13 05:55:57;;;;;;;9.63;7.03;;;;;;;21.79;88.11;98482.88;4997464;28;20026;-87
2021/08/13 05:58:22;;;;;;;7.72;6.20;;;;;;;22.00;85.85;98485.44;4998547;28;20036;-86
2021/08/13 06:00:48;;;;;;;9.55;6.22;;;;;;;22.02;86.41;98483.91;5016420;28;20033;-84
2021/08/13 06:03:13;;;;;;;8.18;5.68;;;;;;;22.51;82.35;98492.78;5014848;28;20030;-80
2021/08/13 06:05:38;;;;;;;8.43;5.90;;;;;;;22.76;81.99;98496.22;5017690;28;20030;-86
2021/08/13 06:08:04;;;;;;;8.48;6.30;;;;;;;22.59;81.20;98499.31;5017003;28;20065;-84
2021/08/13 06:10:31;;;;;;;7.50;6.15;;;;;;;22.82;79.94;98508.69;5015157;28;20172;-83
2021/08/13 06:12:56;;;;;;;8.63;5.97;;;;;;;22.88;81.11;98498.88;5016074;28;20045;-83
2021/08/13 06:15:22;;;;;;;10.18;5.75;;;;;;;23.27;80.07;98503.38;5016781;28;20021;-84
2021/08/13 06:17:48;;;;;;;6.70;5.60;;;;;;;23.58;76.20;98504.47;5017237;28;20026;-86
2021/08/13 06:20:19;;;;;;;9.23;6.45;;;;;;;23.89;74.80;98509.88;5016688;28;20062;-84
2021/08/13 06:22:44;;;;;;;12.60;6.30;;;;;;;23.81;77.97;98500.53;5016337;28;20402;-87
2021/08/13 06:25:10;;;;;;;11.88;6.35;;;;;;;24.04;78.06;98508.16;5016062;28;20028;-83
2021/08/13 06:27:40;;;;;;;14.77;7.03;;;;;;;23.90;78.67;98509.50;5016528;28;20026;-87
2021/08/13 06:30:07;;;;;;;13.40;7.40;;;;;;;23.88;78.18;98511.06;5015105;28;20025;-85
2021/08/13 06:32:33;;;;;;;15.10;7.88;;;;;;;23.82;78.06;98504.97;5017120;28;20093;-84
2021/08/13 06:34:58;;;;;;;13.85;7.35;;;;;;;24.14;77.14;98511.22;5016636;28;20094;-85
2021/08/13 06:37:23;;;;;;;11.85;7.03;;;;;;;24.84;73.61;98514.44;5017052;28;20032;-84
2021/08/13 06:39:49;;;;;;;14.13;6.60;;;;;;;24.84;72.54;98505.25;5015815;28;20038;-82
2021/08/13 06:42:15;;;;;;;7.80;6.45;;;;;;;24.21;74.63;98500.16;5014475;28;20709;-82
2021/08/13 06:44:41;;;;;;;14.38;6.75;;;;;;;24.32;74.57;98495.56;5019155;28;20444;-80
2021/08/13 06:47:07;;;;;;;9.45;7.28;;;;;;;24.27;75.59;98495.06;5020459;28;20113;-83
2021/08/13 06:49:32;;;;;;;13.55;7.55;;;;;;;24.41;74.33;98498.91;5019838;28;20061;-85
2021/08/13 06:51:57;;;;;;;8.70;7.05;;;;;;;24.61;73.68;98494.06;5016077;28;20025;-85
2021/08/13 06:54:23;;;;;;;10.23;6.55;;;;;;;24.35;74.64;98500.41;5015893;28;20026;-83
2021/08/13 06:56:48;;;;;;;13.13;7.05;;;;;;;24.50;73.55;98499.47;5030653;28;20037;-87
2021/08/13 06:59:13;;;;;;;9.27;6.65;;;;;;;24.72;72.61;98509.03;5026440;28;20448;-87
2021/08/13 07:01:39;;;;;;;11.32;6.97;;;;;;;24.83;72.69;98506.44;5031148;28;20120;-88
2021/08/13 07:04:04;;;;;;;9.13;6.00;;;;;;;24.33;75.09;98505.56;5030300;28;20013;-87
2021/08/13 07:06:30;;;;;;;9.15;6.28;;;;;;;24.56;73.79;98513.94;5029802;28;20076;-88
2021/08/13 07:08:55;;;;;;;10.88;7.32;;;;;;;24.59;72.77;98510.41;5032188;28;20016;-83
2021/08/13 07:11:20;;;;;;;9.85;6.55;;;;;;;24.65;72.84;98506.13;5030049;28;20054;-87
2021/08/13 07:13:46;;;;;;;10.13;6.40;;;;;;;24.79;71.63;98516.72;5028584;28;20030;-88
2021/08/13 07:16:11;;;;;;;9.05;6.15;;;;;;;25.28;69.65;98520.31;5023031;28;20029;-86
2021/08/13 07:18:37;;;;;;;8.63;6.28;;;;;;;25.29;68.59;98513.53;5017739;28;20264;-87
2021/08/13 07:21:02;;;;;;;9.35;5.47;;;;;;;25.49;67.06;98517.03;5017642;28;20037;-82
2021/08/13 07:23:28;;;;;;;8.95;5.97;;;;;;;26.08;64.89;98513.34;5016078;28;20037;-86
2021/08/13 07:25:53;;;;;;;7.10;6.40;;;;;;;26.08;64.91;98521.78;5015913;28;20033;-88
2021/08/13 07:28:19;;;;;;;6.85;5.20;;;;;;;26.35;63.26;98514.88;5015828;28;20037;-87
2021/08/13 07:30:44;;;;;;;6.90;5.35;;;;;;;26.20;63.67;98524.34;5016168;28;20092;-88
2021/08/13 07:33:10;;;;;;;7.78;5.55;;;;;;;26.22;64.46;98526.78;5016424;28;20057;-87
2021/08/13 07:35:36;;;;;;;10.90;6.50;;;;;;;26.40;62.81;98510.91;5018340;28;20037;-87
2021/08/13 07:38:02;;;;;;;10.77;5.50;;;;;;;26.74;62.27;98532.09;5017717;28;20506;-87
2021/08/13 07:40:27;;;;;;;10.55;6.22;;;;;;;27.11;61.36;98530.00;5014625;28;20038;-85
2021/08/13 07:42:54;;;;;;;6.97;5.72;;;;;;;27.05;61.30;98527.94;5014594;28;20074;-86
2021/08/13 07:45:21;;;;;;;7.07;4.75;;;;;;;27.66;60.10;98539.19;5015135;28;20026;-86
2021/08/13 07:47:46;;;;;;;10.90;5.78;;;;;;;27.91;58.62;98535.69;5016878;28;20038;-85
2021/08/13 07:50:12;;;;;;;5.55;5.05;;;;;;;28.72;56.42;98537.94;5013470;28;20455;-84
2021/08/13 07:52:37;;;;;;;9.70;5.72;;;;;;;28.77;56.37;98540.34;5012470;28;20026;-79
2021/08/13 07:55:03;;;;;;;5.35;4.47;;;;;;;28.81;56.12;98539.16;5012887;28;20050;-80
2021/08/13 07:57:30;;;;;;;9.82;6.82;;;;;;;29.32;54.42;98543.59;5012372;28;20034;-84
2021/08/13 07:59:56;;;;;;;7.82;5.43;;;;;;;29.37;55.01;98541.16;5014692;28;20075;-80
2021/08/13 08:02:21;;;;;;;7.20;4.95;;;;;;;29.45;53.85;98541.94;5012946;28;20452;-79
2021/08/13 08:04:46;;;;;;;7.85;4.38;;;;;;;29.97;52.41;98546.66;5011849;28;20030;-79
2021/08/13 08:07:15;;;;;;;11.63;5.30;;;;;;;30.73;51.98;98540.19;5010190;28;20030;-78
2021/08/13 08:09:44;;;;;;;8.20;5.22;;;;;;;31.57;48.51;98558.47;5010201;28;20030;-77
2021/08/13 08:12:10;;;;;;;8.75;5.28;;;;;;;31.37;47.25;98548.94;5008189;28;20430;-78
2021/08/13 08:14:36;;;;;;;9.65;4.57;;;;;;;32.17;46.43;98556.97;5011906;28;20038;-81
2021/08/13 08:17:04;;;;;;;7.05;5.18;;;;;;;32.52;47.61;98550.78;5010495;28;20117;-81
2021/08/13 08:19:32;;;;;;;8.13;4.88;;;;;;;30.91;48.80;98554.16;5008685;28;20493;-84
2021/08/13 08:21:57;;;;;;;8.75;5.47;;;;;;;31.86;47.25;98560.97;5012507;28;20026;-79
2021/08/13 08:24:23;;;;;;;6.68;4.57;;;;;;;32.08;46.39;98551.81;5012188;28;20025;-79
2021/08/13 08:26:48;;;;;;;7.55;4.97;;;;;;;32.85;45.40;98558.44;5011888;28;20425;-79
2021/08/13 08:29:14;;;;;;;7.72;4.07;;;;;;;33.89;42.21;98570.38;5012241;28;20026;-80
2021/08/13 08:31:40;;;;;;;6.90;4.93;;;;;;;33.77;42.19;98567.41;5013874;28;20010;-81
2021/08/13 08:34:05;;;;;;;5.75;4.53;;;;;;;34.29;41.23;98554.16;5012092;28;20045;-80
2021/08/13 08:36:31;;;;;;;7.80;5.43;;;;;;;34.58;40.80;98562.84;5011097;28;20022;-75
2021/08/13 08:38:56;;;;;;;8.82;4.78;;;;;;;34.08;41.36;98560.28;5009269;28;20021;-78
2021/08/13 08:41:25;;;;;;;11.20;4.28;;;;;;;34.77;40.91;98567.69;5007598;28;20053;-77
2021/08/13 08:43:51;;;;;;;7.03;4.40;;;;;;;34.88;39.49;98570.28;5008506;28;20064;-76
2021/08/13 08:46:20;;;;;;;7.90;5.25;;;;;;;35.61;37.24;98557.50;5009227;28;20030;-79
2021/08/13 08:48:49;;;;;;;9.25;5.45;;;;;;;34.20;39.44;98556.78;5008836;28;20029;-82
2021/08/13 08:51:16;;;;;;;8.52;5.50;;;;;;;34.57;39.39;98549.06;5009097;28;20032;-78
2021/08/13 08:53:42;;;;;;;9.48;5.15;;;;;;;33.53;42.76;98552.41;5008181;28;20570;-79
2021/08/13 08:56:09;;;;;;;8.50;5.65;;;;;;;34.08;40.23;98557.44;4991518;28;20061;-74
2021/08/13 08:58:35;;;;;;;10.38;5.07;;;;;;;33.09;43.24;98553.59;5004761;28;20061;-73
2021/08/13 09:01:00;;;;;;;6.22;5.50;;;;;;;32.22;44.19;98556.47;5006454;28;20437;-76
2021/08/13 09:03:26;;;;;;;10.90;5.95;;;;;;;31.75;46.32;98549.75;5007569;28;20152;-75
2021/08/13 09:05:52;;;;;;;8.15;4.85;;;;;;;32.01;46.26;98549.06;5007964;28;20052;-75
2021/08/13 09:08:18;;;;;;;12.40;5.78;;;;;;;31.04;47.84;98556.13;5006617;28;20467;-76
2021/08/13 09:10:44;;;;;;;9.38;5.90;;;;;;;30.94;48.00;98548.50;5008792;28;20060;-73
2021/08/13 09:13:10;;;;;;;11.95;5.43;;;;;;;31.05;48.06;98554.06;5009422;28;20383;-77
2021/08/13 09:15:41;;;;;;;10.23;4.72;;;;;;;30.74;47.93;98534.09;5008764;28;20021;-75
2021/08/13 09:18:12;;;;;;;9.85;6.25;;;;;;;30.64;48.64;98540.63;5009308;28;20038;-74
2021/08/13 09:20:45;;;;;;;8.60;5.75;;;;;;;30.80;48.04;98546.56;5005088;28;20557;-73
2021/08/13 09:23:26;;;;;;;7.07;5.22;;;;;;;30.64;48.81;98534.97;5005314;28;20033;-76
2021/08/13 09:26:00;;;;;;;11.82;5.63;;;;;;;30.84;47.72;98537.25;5007784;28;20458;-74
2021/08/13 09:28:39;;;;;;;10.90;5.25;;;;;;;31.00;48.71;98537.56;5011082;28;20026;-73
2021/08/13 09:31:13;;;;;;;12.05;5.70;;;;;;;30.65;49.01;98538.59;5007297;28;20057;-74
2021/08/13 09:33:39;;;;;;;9.88;5.72;;;;;;;30.65;49.75;98532.97;5006502;28;21580;-74
2021/08/13 09:36:06;;;;;;;8.23;5.45;;;;;;;31.56;47.40;98539.06;5006516;28;20021;-74
2021/08/13 09:38:32;;;;;;;9.13;5.65;;;;;;;32.15;46.12;98539.56;5006766;28;20030;-75
2021/08/13 09:41:13;;;;;;;8.10;5.55;;;;;;;32.36;45.41;98536.44;5004733;28;20028;-73
2021/08/13 09:44:00;;;;;;;9.90;5.40;;;;;;;32.17;46.27;98537.16;5005746;28;20080;-73
2021/08/13 09:46:27;;;;;;;10.38;5.35;;;;;;;32.01;45.71;98537.72;5006951;28;20042;-73
2021/08/13 09:48:53;;;;;;;8.13;6.10;;;;;;;31.59;46.13;98533.38;5006849;28;20467;-72
2021/08/13 09:51:35;;;;;;;6.95;6.07;;;;;;;31.58;45.96;98526.09;5003826;28;20022;-73
2021/08/13 09:54:07;;;;;;;11.20;5.68;;;;;;;32.10;45.13;98538.03;5005469;28;20030;-74
2021/08/13 09:56:36;;;;;;;7.22;5.18;;;;;;;32.79;44.09;98537.47;5005861;28;20018;-74
2021/08/13 09:59:15;;;;;;;8.23;5.65;;;;;;;33.08;43.83;98542.66;5006992;28;20207;-76
2021/08/13 10:01:42;;;;;;;9.88;5.53;;;;;;;32.89;43.75;98530.78;5004860;28;20041;-76
2021/08/13 10:04:08;;;;;;;12.93;6.82;;;;;;;32.41;45.61;98527.50;5007015;28;20036;-76
2021/08/13 10:06:35;;;;;;;10.73;7.05;;;;;;;32.44;45.50;98528.66;5004896;28;20430;-74
2021/08/13 10:09:02;;;;;;;8.38;6.53;;;;;;;32.42;45.47;98529.09;5007099;28;20374;-75
2021/08/13 10:11:28;;;;;;;10.32;5.88;;;;;;;32.36;45.08;98525.91;5009503;28;20475;-72
2021/08/13 10:13:54;;;;;;;6.45;5.85;;;;;;;32.52;44.95;98528.13;5011313;28;20030;-74
2021/08/13 10:16:25;;;;;;;7.32;5.40;;;;;;;32.90;44.78;98523.09;5012669;28;20095;-73
2021/08/13 10:18:55;;;;;;;11.70;7.07;;;;;;;32.85;44.82;98515.91;5012437;28;20470;-74
2021/08/13 10:21:24;;;;;;;16.73;7.22;;;;;;;32.29;45.04;98513.91;5012300;28;20033;-76
2021/08/13 10:23:52;;;;;;;12.88;7.15;;;;;;;31.94;45.47;98505.84;5012317;28;20111;-77
2021/08/13 10:26:21;;;;;;;13.20;7.50;;;;;;;31.46;45.54;98509.63;5010788;28;20081;-73
2021/08/13 10:28:49;;;;;;;11.15;6.63;;;;;;;31.23;46.56;98503.81;5010565;28;20022;-75
2021/08/13 10:31:17;;;;;;;8.27;6.18;;;;;;;31.85;45.36;98509.22;5008159;28;20044;-74
2021/08/13 10:33:48;;;;;;;7.05;5.57;;;;;;;32.31;44.18;98511.44;5008280;28;20033;-75
2021/08/13 10:36:18;;;;;;;9.50;5.70;;;;;;;31.96;44.50;98506.22;5010443;28;20035;-75
2021/08/13 10:38:47;;;;;;;10.23;5.70;;;;;;;31.67;44.62;98500.91;5010046;28;20104;-72
2021/08/13 10:41:17;;;;;;;7.65;6.10;;;;;;;31.50;44.71;98498.31;5008070;28;20044;-75
2021/08/13 10:43:47;;;;;;;7.70;5.80;;;;;;;31.64;43.67;98507.41;5009405;28;20051;-74
2021/08/13 10:46:14;;;;;;;9.00;6.00;;;;;;;31.90;42.27;98496.59;5009325;28;20175;-75
2021/08/13 10:48:46;;;;;;;6.60;5.65;;;;;;;32.22;42.07;98502.66;5009176;28;20047;-76
2021/08/13 10:51:12;;;;;;;8.30;6.10;;;;;;;32.49;42.16;98506.31;5009498;28;20572;-74
2021/08/13 10:53:38;;;;;;;9.85;6.53;;;;;;;32.48;43.77;98501.88;5008169;28;20018;-76
2021/08/13 10:56:06;;;;;;;7.65;5.70;;;;;;;32.30;44.48;98501.31;5008992;28;20033;-78
2021/08/13 10:58:42;;;;;;;9.13;5.95;;;;;;;32.30;44.21;98499.31;5010509;28;20080;-74
2021/08/13 11:01:12;;;;;;;9.15;4.75;;;;;;;33.13;43.06;98502.47;5008820;28;20537;-73
2021/08/13 11:03:41;;;;;;;7.88;5.85;;;;;;;32.24;44.29;98488.88;5008954;28;20117;-75
2021/08/13 11:06:09;;;;;;;7.00;6.22;;;;;;;32.06;45.50;98491.16;5009243;28;20025;-74
2021/08/13 11:08:41;;;;;;;8.57;6.03;;;;;;;32.33;44.48;98497.63;5009629;28;20601;-75
2021/08/13 11:11:16;;;;;;;9.05;6.15;;;;;;;33.01;44.42;98484.03;5010007;28;20038;-78
2021/08/13 11:13:47;;;;;;;7.88;5.75;;;;;;;33.51;43.07;98498.13;5010161;28;20168;-76
2021/08/13 11:16:32;;;;;;;8.38;6.28;;;;;;;33.77;41.78;98493.56;5005920;28;20021;-76
2021/08/13 11:18:59;;;;;;;9.45;6.15;;;;;;;33.71;40.56;98493.25;4992230;28;20432;-78
2021/08/13 11:21:53;;;;;;;12.88;6.15;;;;;;;33.49;40.78;98489.22;4990672;28;20032;-78
2021/08/13 11:24:22;;;;;;;5.68;4.90;;;;;;;33.60;40.43;98495.53;4999332;28;20076;-77
2021/08/13 11:26:47;;;;;;;7.38;6.65;;;;;;;33.07;42.38;98484.31;5010442;28;20030;-77
2021/08/13 11:29:39;;;;;;;10.18;6.70;;;;;;;32.87;42.54;98472.91;5010854;28;20386;-76